< Cyclone 198705 1987 Season Cyclone 198707 >
Cyclone 198706 (KAY)
General InformationTrack Information on Google MapsDetailed Wind InformationList of All Images || ResourceGoogle EarthGE AnimationAtom FeedGeoJSON
Detalied Best Track (Time Zone = UTC)
Year Month Day Hour Lat. Long. Pressure (hPa) Wind (kt) Class Image Chart
1987 4 8 00 -8.4 140.1 1003 0 0 Image --
1987 4 8 06 -8.7 139.4 999 0 0 Image --
1987 4 8 12 -8.8 138.0 993 0 0 Image --
1987 4 8 18 -9.2 136.6 993 0 0 Image --
1987 4 9 00 -9.7 136.2 993 0 0 Image --
1987 4 9 06 -10.0 135.6 990 0 0 Image --
1987 4 9 12 -10.2 134.6 987 0 0 Image --
1987 4 9 18 -10.6 133.9 987 0 0 Image --
1987 4 10 00 -11.1 133.2 987 0 0 Image --
1987 4 10 03 -11.4 131.3 987 0 0 Image --
1987 4 10 06 -11.9 130.7 987 0 0 Image --
1987 4 10 12 -11.7 130.4 988 0 0 Image --
1987 4 10 18 -11.4 130.0 990 0 0 Image --
1987 4 11 00 -11.1 129.0 991 0 0 Image --
1987 4 11 06 -11.8 128.0 993 0 0 Image --
1987 4 11 12 -12.1 127.0 991 0 0 Image --
1987 4 11 18 -12.3 125.7 992 39 3 Image --
1987 4 12 00 -13.0 124.9 988 45 3 Image --
1987 4 12 06 -13.4 124.0 984 49 4 Image --
1987 4 12 12 -13.5 122.8 980 54 4 Image --
1987 4 12 18 -13.6 121.8 976 58 4 Image --
1987 4 13 00 -14.7 121.2 976 58 4 Image --
1987 4 13 06 -14.5 120.2 976 58 4 Image --
1987 4 13 12 -14.3 119.6 976 58 4 Image --
1987 4 13 18 -14.2 118.9 976 58 4 Image --
1987 4 14 00 -14.1 118.2 982 51 4 Image --
1987 4 14 06 -14.4 117.6 988 45 3 Image --
1987 4 14 12 -14.9 116.8 992 39 3 Image --
1987 4 14 18 -14.8 115.9 994 35 3 Image --
1987 4 15 00 -14.5 115.0 994 35 3 Image --
1987 4 15 06 -14.5 113.9 994 35 3 Image --
1987 4 15 12 -14.9 112.7 994 35 3 Image --
1987 4 15 18 -15.6 111.5 994 35 3 Image --
1987 4 16 00 -16.7 110.8 994 35 3 Image --
1987 4 16 06 -17.6 110.4 995 35 3 Image --
1987 4 16 12 -18.2 109.7 997 31 2 Image --
1987 4 16 18 -18.7 108.8 999 29 2 Image --
1987 4 17 00 -18.9 107.5 1002 23 2 Image --
< Cyclone 198705 1987 Season Cyclone 198707 >

Help